sensor_id;sensor_type;location;lat;lon;timestamp;temperature;humidity
5172;DHT22;2605;49.770;9.868;2022-09-27T00:00:33;9.50;99.90
5172;DHT22;2605;49.770;9.868;2022-09-27T00:02:59;9.40;99.90
5172;DHT22;2605;49.770;9.868;2022-09-27T00:05:25;9.50;99.90
5172;DHT22;2605;49.770;9.868;2022-09-27T00:07:50;9.40;99.90
5172;DHT22;2605;49.770;9.868;2022-09-27T00:10:16;9.50;99.90
5172;DHT22;2605;49.770;9.868;2022-09-27T00:12:42;9.40;99.90
5172;DHT22;2605;49.770;9.868;2022-09-27T00:15:08;9.40;99.90
5172;DHT22;2605;49.770;9.868;2022-09-27T00:17:35;9.40;99.90
5172;DHT22;2605;49.770;9.868;2022-09-27T00:20:01;9.40;99.90
5172;DHT22;2605;49.770;9.868;2022-09-27T00:22:27;9.40;99.90
5172;DHT22;2605;49.770;9.868;2022-09-27T00:24:53;9.40;99.90
5172;DHT22;2605;49.770;9.868;2022-09-27T00:27:18;9.40;99.90
5172;DHT22;2605;49.770;9.868;2022-09-27T00:29:44;9.40;99.90
5172;DHT22;2605;49.770;9.868;2022-09-27T00:32:11;9.30;99.90
5172;DHT22;2605;49.770;9.868;2022-09-27T00:34:37;9.40;99.90
5172;DHT22;2605;49.770;9.868;2022-09-27T00:37:03;9.30;99.90
5172;DHT22;2605;49.770;9.868;2022-09-27T00:39:28;9.30;99.90
5172;DHT22;2605;49.770;9.868;2022-09-27T00:41:54;9.30;99.90
5172;DHT22;2605;49.770;9.868;2022-09-27T00:49:56;9.30;99.90
5172;DHT22;2605;49.770;9.868;2022-09-27T00:52:34;9.40;99.90
5172;DHT22;2605;49.770;9.868;2022-09-27T00:55:06;9.30;99.90
5172;DHT22;2605;49.770;9.868;2022-09-27T00:57:35;9.30;99.90
5172;DHT22;2605;49.770;9.868;2022-09-27T01:00:05;9.30;99.90
5172;DHT22;2605;49.770;9.868;2022-09-27T01:02:31;9.30;99.90
5172;DHT22;2605;49.770;9.868;2022-09-27T01:04:57;9.30;99.90
5172;DHT22;2605;49.770;9.868;2022-09-27T01:07:23;9.40;99.90
5172;DHT22;2605;49.770;9.868;2022-09-27T01:09:48;9.40;99.90
5172;DHT22;2605;49.770;9.868;2022-09-27T01:15:39;9.40;99.90
5172;DHT22;2605;49.770;9.868;2022-09-27T01:18:27;9.40;99.90
5172;DHT22;2605;49.770;9.868;2022-09-27T01:21:03;9.40;99.90
5172;DHT22;2605;49.770;9.868;2022-09-27T01:26:41;9.40;99.90
5172;DHT22;2605;49.770;9.868;2022-09-27T01:34:50;9.40;99.90
5172;DHT22;2605;49.770;9.868;2022-09-27T01:37:21;9.30;99.90
5172;DHT22;2605;49.770;9.868;2022-09-27T01:40:12;9.30;99.90
5172;DHT22;2605;49.770;9.868;2022-09-27T01:43:12;9.40;99.90
5172;DHT22;2605;49.770;9.868;2022-09-27T01:45:44;9.30;99.90
5172;DHT22;2605;49.770;9.868;2022-09-27T01:48:21;9.30;99.90
5172;DHT22;2605;49.770;9.868;2022-09-27T01:51:10;9.30;99.90
5172;DHT22;2605;49.770;9.868;2022-09-27T01:53:53;9.30;99.90
5172;DHT22;2605;49.770;9.868;2022-09-27T01:56:29;9.30;99.90
5172;DHT22;2605;49.770;9.868;2022-09-27T01:59:04;9.40;99.90
5172;DHT22;2605;49.770;9.868;2022-09-27T02:01:34;9.40;99.90
5172;DHT22;2605;49.770;9.868;2022-09-27T02:04:04;9.40;99.90
5172;DHT22;2605;49.770;9.868;2022-09-27T02:06:39;9.40;99.90
5172;DHT22;2605;49.770;9.868;2022-09-27T02:09:30;9.40;99.90
5172;DHT22;2605;49.770;9.868;2022-09-27T02:12:03;9.40;99.90
5172;DHT22;2605;49.770;9.868;2022-09-27T02:14:52;9.30;99.90
5172;DHT22;2605;49.770;9.868;2022-09-27T02:20:28;9.30;99.90
5172;DHT22;2605;49.770;9.868;2022-09-27T02:23:21;9.30;99.90
5172;DHT22;2605;49.770;9.868;2022-09-27T02:26:38;9.30;99.90
5172;DHT22;2605;49.770;9.868;2022-09-27T02:28:53;9.40;99.90
5172;DHT22;2605;49.770;9.868;2022-09-27T02:31:19;9.30;99.90
5172;DHT22;2605;49.770;9.868;2022-09-27T02:33:52;9.30;99.90
5172;DHT22;2605;49.770;9.868;2022-09-27T02:36:19;9.20;99.90
5172;DHT22;2605;49.770;9.868;2022-09-27T02:38:45;9.20;99.90
5172;DHT22;2605;49.770;9.868;2022-09-27T02:41:20;9.20;99.90
5172;DHT22;2605;49.770;9.868;2022-09-27T02:43:49;9.20;99.90
5172;DHT22;2605;49.770;9.868;2022-09-27T02:46:42;9.10;99.90
5172;DHT22;2605;49.770;9.868;2022-09-27T02:52:45;9.10;99.90
5172;DHT22;2605;49.770;9.868;2022-09-27T02:55:34;9.00;99.90
5172;DHT22;2605;49.770;9.868;2022-09-27T03:01:07;8.90;99.90
5172;DHT22;2605;49.770;9.868;2022-09-27T03:03:58;8.90;99.90
5172;DHT22;2605;49.770;9.868;2022-09-27T03:06:27;8.90;99.90
5172;DHT22;2605;49.770;9.868;2022-09-27T03:08:53;8.90;99.90
5172;DHT22;2605;49.770;9.868;2022-09-27T03:11:21;8.90;99.90
5172;DHT22;2605;49.770;9.868;2022-09-27T03:13:46;8.90;99.90
5172;DHT22;2605;49.770;9.868;2022-09-27T03:16:12;9.00;99.90
5172;DHT22;2605;49.770;9.868;2022-09-27T03:18:39;8.90;99.90
5172;DHT22;2605;49.770;9.868;2022-09-27T03:21:05;8.90;99.90
5172;DHT22;2605;49.770;9.868;2022-09-27T03:23:31;8.90;99.90
5172;DHT22;2605;49.770;9.868;2022-09-27T03:25:56;8.90;99.90
5172;DHT22;2605;49.770;9.868;2022-09-27T03:28:22;8.90;99.90
5172;DHT22;2605;49.770;9.868;2022-09-27T03:30:47;8.90;99.90
5172;DHT22;2605;49.770;9.868;2022-09-27T03:33:13;8.90;99.90
5172;DHT22;2605;49.770;9.868;2022-09-27T03:35:38;8.90;99.90
5172;DHT22;2605;49.770;9.868;2022-09-27T03:38:04;8.90;99.90
5172;DHT22;2605;49.770;9.868;2022-09-27T03:40:31;8.80;99.90
5172;DHT22;2605;49.770;9.868;2022-09-27T03:42:57;8.80;99.90
5172;DHT22;2605;49.770;9.868;2022-09-27T03:45:22;8.80;99.90
5172;DHT22;2605;49.770;9.868;2022-09-27T03:47:48;8.80;99.90
5172;DHT22;2605;49.770;9.868;2022-09-27T03:50:14;8.80;99.90
5172;DHT22;2605;49.770;9.868;2022-09-27T03:52:41;8.80;99.90
5172;DHT22;2605;49.770;9.868;2022-09-27T03:55:08;8.70;99.90
5172;DHT22;2605;49.770;9.868;2022-09-27T03:57:33;8.80;99.90
5172;DHT22;2605;49.770;9.868;2022-09-27T03:59:59;8.70;99.90
5172;DHT22;2605;49.770;9.868;2022-09-27T04:02:26;8.70;99.90
5172;DHT22;2605;49.770;9.868;2022-09-27T04:04:52;8.80;99.90
5172;DHT22;2605;49.770;9.868;2022-09-27T04:07:17;8.70;99.90
5172;DHT22;2605;49.770;9.868;2022-09-27T04:09:43;8.70;99.90
5172;DHT22;2605;49.770;9.868;2022-09-27T04:12:11;8.70;99.90
5172;DHT22;2605;49.770;9.868;2022-09-27T04:14:37;8.80;99.90
5172;DHT22;2605;49.770;9.868;2022-09-27T04:17:02;8.80;99.90
5172;DHT22;2605;49.770;9.868;2022-09-27T04:19:28;8.70;99.90
5172;DHT22;2605;49.770;9.868;2022-09-27T04:21:53;8.80;99.90
5172;DHT22;2605;49.770;9.868;2022-09-27T04:24:19;8.80;99.90
5172;DHT22;2605;49.770;9.868;2022-09-27T04:26:44;8.70;99.90
5172;DHT22;2605;49.770;9.868;2022-09-27T04:29:10;8.90;99.90
5172;DHT22;2605;49.770;9.868;2022-09-27T04:31:39;8.70;99.90
5172;DHT22;2605;49.770;9.868;2022-09-27T04:34:04;8.80;99.90
5172;DHT22;2605;49.770;9.868;2022-09-27T04:36:30;8.80;99.90
5172;DHT22;2605;49.770;9.868;2022-09-27T04:38:58;8.80;99.90
5172;DHT22;2605;49.770;9.868;2022-09-27T04:41:25;8.80;99.90
5172;DHT22;2605;49.770;9.868;2022-09-27T04:43:53;8.80;99.90
5172;DHT22;2605;49.770;9.868;2022-09-27T04:46:19;8.80;99.90
5172;DHT22;2605;49.770;9.868;2022-09-27T04:48:48;8.80;99.90
5172;DHT22;2605;49.770;9.868;2022-09-27T04:51:17;8.80;99.90
5172;DHT22;2605;49.770;9.868;2022-09-27T04:53:46;8.70;99.90
5172;DHT22;2605;49.770;9.868;2022-09-27T04:56:12;8.80;99.90
5172;DHT22;2605;49.770;9.868;2022-09-27T04:58:38;8.70;99.90
5172;DHT22;2605;49.770;9.868;2022-09-27T05:01:04;8.80;99.90
5172;DHT22;2605;49.770;9.868;2022-09-27T05:03:31;8.70;99.90
5172;DHT22;2605;49.770;9.868;2022-09-27T05:05:57;8.70;99.90
5172;DHT22;2605;49.770;9.868;2022-09-27T05:08:23;8.70;99.90
5172;DHT22;2605;49.770;9.868;2022-09-27T05:10:49;8.70;99.90
5172;DHT22;2605;49.770;9.868;2022-09-27T05:13:15;8.70;99.90
5172;DHT22;2605;49.770;9.868;2022-09-27T05:15:40;8.60;99.90
5172;DHT22;2605;49.770;9.868;2022-09-27T05:18:06;8.70;99.90
5172;DHT22;2605;49.770;9.868;2022-09-27T05:20:34;8.60;99.90
5172;DHT22;2605;49.770;9.868;2022-09-27T05:23:00;8.50;99.90
5172;DHT22;2605;49.770;9.868;2022-09-27T05:25:26;8.50;99.90
5172;DHT22;2605;49.770;9.868;2022-09-27T05:27:51;8.40;99.90
5172;DHT22;2605;49.770;9.868;2022-09-27T05:30:17;8.30;99.90
5172;DHT22;2605;49.770;9.868;2022-09-27T05:32:44;8.30;99.90
5172;DHT22;2605;49.770;9.868;2022-09-27T05:35:11;8.20;99.90
5172;DHT22;2605;49.770;9.868;2022-09-27T05:37:36;8.20;99.90
5172;DHT22;2605;49.770;9.868;2022-09-27T05:40:04;8.10;99.90
5172;DHT22;2605;49.770;9.868;2022-09-27T05:42:33;8.10;99.90
5172;DHT22;2605;49.770;9.868;2022-09-27T05:45:03;8.20;99.90
5172;DHT22;2605;49.770;9.868;2022-09-27T05:47:29;8.00;99.90
5172;DHT22;2605;49.770;9.868;2022-09-27T05:49:54;8.00;99.90
5172;DHT22;2605;49.770;9.868;2022-09-27T05:52:20;8.00;99.90
5172;DHT22;2605;49.770;9.868;2022-09-27T05:54:45;8.00;99.90
5172;DHT22;2605;49.770;9.868;2022-09-27T05:57:11;8.00;99.90
5172;DHT22;2605;49.770;9.868;2022-09-27T05:59:36;8.00;99.90
5172;DHT22;2605;49.770;9.868;2022-09-27T06:02:02;8.00;99.90
5172;DHT22;2605;49.770;9.868;2022-09-27T06:04:27;7.90;99.90
5172;DHT22;2605;49.770;9.868;2022-09-27T06:06:53;7.90;99.90
5172;DHT22;2605;49.770;9.868;2022-09-27T06:09:18;7.90;99.90
5172;DHT22;2605;49.770;9.868;2022-09-27T06:11:44;7.90;99.90
5172;DHT22;2605;49.770;9.868;2022-09-27T06:14:13;7.90;99.90
5172;DHT22;2605;49.770;9.868;2022-09-27T06:16:39;7.90;99.90
5172;DHT22;2605;49.770;9.868;2022-09-27T06:19:04;8.00;99.90
5172;DHT22;2605;49.770;9.868;2022-09-27T06:21:30;8.00;99.90
5172;DHT22;2605;49.770;9.868;2022-09-27T06:23:57;8.10;99.90
5172;DHT22;2605;49.770;9.868;2022-09-27T06:26:24;8.20;99.90
5172;DHT22;2605;49.770;9.868;2022-09-27T06:28:51;8.10;99.90
5172;DHT22;2605;49.770;9.868;2022-09-27T06:31:17;8.20;99.90
5172;DHT22;2605;49.770;9.868;2022-09-27T06:33:42;8.30;99.90
5172;DHT22;2605;49.770;9.868;2022-09-27T06:36:08;8.10;99.90
5172;DHT22;2605;49.770;9.868;2022-09-27T06:38:34;8.10;99.90
5172;DHT22;2605;49.770;9.868;2022-09-27T06:41:01;8.00;99.90
5172;DHT22;2605;49.770;9.868;2022-09-27T06:43:26;8.00;99.90
5172;DHT22;2605;49.770;9.868;2022-09-27T06:45:52;8.00;99.90
5172;DHT22;2605;49.770;9.868;2022-09-27T06:48:18;8.00;99.90
5172;DHT22;2605;49.770;9.868;2022-09-27T06:50:45;8.00;99.90
5172;DHT22;2605;49.770;9.868;2022-09-27T06:53:12;8.00;99.90
5172;DHT22;2605;49.770;9.868;2022-09-27T06:55:39;8.00;99.90
5172;DHT22;2605;49.770;9.868;2022-09-27T06:58:05;8.10;99.90
5172;DHT22;2605;49.770;9.868;2022-09-27T07:00:51;8.10;99.90
5172;DHT22;2605;49.770;9.868;2022-09-27T07:03:18;8.20;99.90
5172;DHT22;2605;49.770;9.868;2022-09-27T07:05:54;8.20;99.90
5172;DHT22;2605;49.770;9.868;2022-09-27T07:08:20;8.40;99.90
5172;DHT22;2605;49.770;9.868;2022-09-27T07:10:45;8.40;99.90
5172;DHT22;2605;49.770;9.868;2022-09-27T07:13:11;8.50;99.90
5172;DHT22;2605;49.770;9.868;2022-09-27T07:15:40;8.50;99.90
5172;DHT22;2605;49.770;9.868;2022-09-27T07:18:06;8.60;99.90
5172;DHT22;2605;49.770;9.868;2022-09-27T07:20:33;8.60;99.90
5172;DHT22;2605;49.770;9.868;2022-09-27T07:23:04;8.60;99.90
5172;DHT22;2605;49.770;9.868;2022-09-27T07:25:30;8.50;99.90
5172;DHT22;2605;49.770;9.868;2022-09-27T07:28:00;8.50;99.90
5172;DHT22;2605;49.770;9.868;2022-09-27T07:30:26;8.50;99.90
5172;DHT22;2605;49.770;9.868;2022-09-27T07:32:59;8.60;99.90
5172;DHT22;2605;49.770;9.868;2022-09-27T07:35:25;8.70;99.90
5172;DHT22;2605;49.770;9.868;2022-09-27T07:37:51;8.80;99.90
5172;DHT22;2605;49.770;9.868;2022-09-27T07:40:17;9.00;99.90
5172;DHT22;2605;49.770;9.868;2022-09-27T07:42:43;9.00;99.90
5172;DHT22;2605;49.770;9.868;2022-09-27T07:45:10;9.00;99.90
5172;DHT22;2605;49.770;9.868;2022-09-27T07:47:38;9.10;99.90
5172;DHT22;2605;49.770;9.868;2022-09-27T07:50:04;9.20;99.90
5172;DHT22;2605;49.770;9.868;2022-09-27T07:52:40;9.20;99.90
5172;DHT22;2605;49.770;9.868;2022-09-27T07:55:08;9.20;99.90
5172;DHT22;2605;49.770;9.868;2022-09-27T07:57:35;9.20;99.90
5172;DHT22;2605;49.770;9.868;2022-09-27T08:00:05;9.10;99.90
5172;DHT22;2605;49.770;9.868;2022-09-27T08:02:31;9.10;99.90
5172;DHT22;2605;49.770;9.868;2022-09-27T08:04:58;9.20;99.90
5172;DHT22;2605;49.770;9.868;2022-09-27T08:07:24;9.20;99.90
5172;DHT22;2605;49.770;9.868;2022-09-27T08:09:50;9.30;99.90
5172;DHT22;2605;49.770;9.868;2022-09-27T08:12:16;9.40;99.90
5172;DHT22;2605;49.770;9.868;2022-09-27T08:14:41;9.40;99.90
5172;DHT22;2605;49.770;9.868;2022-09-27T08:17:09;9.40;99.90
5172;DHT22;2605;49.770;9.868;2022-09-27T08:19:35;9.30;99.90
5172;DHT22;2605;49.770;9.868;2022-09-27T08:22:01;9.30;99.90
5172;DHT22;2605;49.770;9.868;2022-09-27T08:24:26;9.30;99.90
5172;DHT22;2605;49.770;9.868;2022-09-27T08:26:53;9.20;99.90
5172;DHT22;2605;49.770;9.868;2022-09-27T08:29:19;9.00;99.90
5172;DHT22;2605;49.770;9.868;2022-09-27T08:31:45;9.00;99.90
5172;DHT22;2605;49.770;9.868;2022-09-27T08:34:11;8.80;99.90
5172;DHT22;2605;49.770;9.868;2022-09-27T08:36:36;8.90;99.90
5172;DHT22;2605;49.770;9.868;2022-09-27T08:39:03;8.90;99.90
5172;DHT22;2605;49.770;9.868;2022-09-27T08:41:48;8.90;99.90
5172;DHT22;2605;49.770;9.868;2022-09-27T08:47:01;9.30;99.90
5172;DHT22;2605;49.770;9.868;2022-09-27T08:49:58;9.20;99.90
5172;DHT22;2605;49.770;9.868;2022-09-27T08:52:32;9.30;99.90
5172;DHT22;2605;49.770;9.868;2022-09-27T08:55:03;9.30;99.90
5172;DHT22;2605;49.770;9.868;2022-09-27T08:57:29;9.20;99.90
5172;DHT22;2605;49.770;9.868;2022-09-27T09:00:05;9.50;99.90
5172;DHT22;2605;49.770;9.868;2022-09-27T09:02:32;9.70;99.90
5172;DHT22;2605;49.770;9.868;2022-09-27T09:05:02;9.80;99.90
5172;DHT22;2605;49.770;9.868;2022-09-27T09:07:42;9.80;99.90
5172;DHT22;2605;49.770;9.868;2022-09-27T09:16:29;9.30;99.90
5172;DHT22;2605;49.770;9.868;2022-09-27T09:19:35;9.00;99.90
5172;DHT22;2605;49.770;9.868;2022-09-27T09:25:10;9.00;99.90
5172;DHT22;2605;49.770;9.868;2022-09-27T09:27:46;8.90;99.90
5172;DHT22;2605;49.770;9.868;2022-09-27T09:35:41;9.10;99.90
5172;DHT22;2605;49.770;9.868;2022-09-27T09:38:23;9.20;99.90
5172;DHT22;2605;49.770;9.868;2022-09-27T09:41:20;9.30;99.90
5172;DHT22;2605;49.770;9.868;2022-09-27T09:46:46;9.40;99.90
5172;DHT22;2605;49.770;9.868;2022-09-27T09:49:22;9.30;99.90
5172;DHT22;2605;49.770;9.868;2022-09-27T09:51:52;9.30;99.90
5172;DHT22;2605;49.770;9.868;2022-09-27T09:54:50;9.40;99.90
5172;DHT22;2605;49.770;9.868;2022-09-27T09:57:21;9.50;99.90
5172;DHT22;2605;49.770;9.868;2022-09-27T10:00:04;9.70;99.90
5172;DHT22;2605;49.770;9.868;2022-09-27T10:02:37;9.70;99.90
5172;DHT22;2605;49.770;9.868;2022-09-27T10:05:04;9.70;99.90
5172;DHT22;2605;49.770;9.868;2022-09-27T10:07:32;9.90;99.90
5172;DHT22;2605;49.770;9.868;2022-09-27T10:10:00;10.10;99.90
5172;DHT22;2605;49.770;9.868;2022-09-27T10:12:27;10.20;99.90
5172;DHT22;2605;49.770;9.868;2022-09-27T10:14:55;10.20;99.90
5172;DHT22;2605;49.770;9.868;2022-09-27T10:17:25;10.10;99.90
5172;DHT22;2605;49.770;9.868;2022-09-27T10:19:55;10.00;99.90
5172;DHT22;2605;49.770;9.868;2022-09-27T10:22:30;9.90;99.90
5172;DHT22;2605;49.770;9.868;2022-09-27T10:24:59;9.80;99.90
5172;DHT22;2605;49.770;9.868;2022-09-27T10:27:39;10.00;99.90
5172;DHT22;2605;49.770;9.868;2022-09-27T10:30:06;10.10;99.90
5172;DHT22;2605;49.770;9.868;2022-09-27T10:32:50;10.10;99.90
5172;DHT22;2605;49.770;9.868;2022-09-27T10:38:26;10.60;99.90
5172;DHT22;2605;49.770;9.868;2022-09-27T10:40:54;10.80;99.90
5172;DHT22;2605;49.770;9.868;2022-09-27T10:43:35;10.90;99.90
5172;DHT22;2605;49.770;9.868;2022-09-27T10:49:17;11.10;99.90
5172;DHT22;2605;49.770;9.868;2022-09-27T10:51:45;11.10;99.90
5172;DHT22;2605;49.770;9.868;2022-09-27T10:54:19;11.10;99.90
5172;DHT22;2605;49.770;9.868;2022-09-27T10:56:57;11.20;99.90
5172;DHT22;2605;49.770;9.868;2022-09-27T10:59:24;11.20;99.90
5172;DHT22;2605;49.770;9.868;2022-09-27T11:01:50;11.10;99.90
5172;DHT22;2605;49.770;9.868;2022-09-27T11:04:27;11.40;99.90
5172;DHT22;2605;49.770;9.868;2022-09-27T11:07:16;11.60;99.90
5172;DHT22;2605;49.770;9.868;2022-09-27T11:09:53;11.50;99.90
5172;DHT22;2605;49.770;9.868;2022-09-27T11:12:20;11.50;99.90
5172;DHT22;2605;49.770;9.868;2022-09-27T11:15:00;11.40;99.90
5172;DHT22;2605;49.770;9.868;2022-09-27T11:17:34;11.30;99.90
5172;DHT22;2605;49.770;9.868;2022-09-27T11:30:52;11.90;99.90
5172;DHT22;2605;49.770;9.868;2022-09-27T11:36:31;12.30;99.90
5172;DHT22;2605;49.770;9.868;2022-09-27T11:39:05;12.50;99.90
5172;DHT22;2605;49.770;9.868;2022-09-27T11:41:46;12.50;99.90
5172;DHT22;2605;49.770;9.868;2022-09-27T11:53:02;10.70;99.90
5172;DHT22;2605;49.770;9.868;2022-09-27T12:07:44;8.80;99.90
5172;DHT22;2605;49.770;9.868;2022-09-27T12:09:54;8.70;99.90
5172;DHT22;2605;49.770;9.868;2022-09-27T12:12:25;8.70;99.90
5172;DHT22;2605;49.770;9.868;2022-09-27T12:14:59;8.70;99.90
5172;DHT22;2605;49.770;9.868;2022-09-27T12:17:33;8.80;99.90
5172;DHT22;2605;49.770;9.868;2022-09-27T12:20:05;8.80;99.90
5172;DHT22;2605;49.770;9.868;2022-09-27T12:22:42;8.90;99.90
5172;DHT22;2605;49.770;9.868;2022-09-27T12:25:16;9.00;99.90
5172;DHT22;2605;49.770;9.868;2022-09-27T12:27:46;9.40;99.90
5172;DHT22;2605;49.770;9.868;2022-09-27T12:30:13;9.70;99.90
5172;DHT22;2605;49.770;9.868;2022-09-27T12:33:05;9.90;99.90
5172;DHT22;2605;49.770;9.868;2022-09-27T12:35:41;9.90;99.90
5172;DHT22;2605;49.770;9.868;2022-09-27T12:38:32;10.00;99.90
5172;DHT22;2605;49.770;9.868;2022-09-27T12:41:00;10.10;99.90
5172;DHT22;2605;49.770;9.868;2022-09-27T12:43:29;10.10;99.90
5172;DHT22;2605;49.770;9.868;2022-09-27T12:51:37;10.20;99.90
5172;DHT22;2605;49.770;9.868;2022-09-27T13:00:17;10.70;99.90
5172;DHT22;2605;49.770;9.868;2022-09-27T13:03:18;10.90;99.90
5172;DHT22;2605;49.770;9.868;2022-09-27T13:13:56;11.70;99.90
5172;DHT22;2605;49.770;9.868;2022-09-27T13:16:23;11.90;99.90
5172;DHT22;2605;49.770;9.868;2022-09-27T13:18:57;12.10;99.90
5172;DHT22;2605;49.770;9.868;2022-09-27T13:29:48;12.30;99.90
5172;DHT22;2605;49.770;9.868;2022-09-27T13:32:16;12.40;99.90
5172;DHT22;2605;49.770;9.868;2022-09-27T13:43:09;12.00;99.90
5172;DHT22;2605;49.770;9.868;2022-09-27T13:48:19;11.90;99.90
5172;DHT22;2605;49.770;9.868;2022-09-27T13:54:05;12.30;99.90
5172;DHT22;2605;49.770;9.868;2022-09-27T13:59:25;11.80;99.90
5172;DHT22;2605;49.770;9.868;2022-09-27T14:02:12;11.60;99.90
5172;DHT22;2605;49.770;9.868;2022-09-27T14:04:45;11.70;99.90
5172;DHT22;2605;49.770;9.868;2022-09-27T14:07:16;11.80;99.90
5172;DHT22;2605;49.770;9.868;2022-09-27T14:09:45;12.10;99.90
5172;DHT22;2605;49.770;9.868;2022-09-27T14:12:19;12.20;99.90
5172;DHT22;2605;49.770;9.868;2022-09-27T14:14:45;12.30;99.90
5172;DHT22;2605;49.770;9.868;2022-09-27T14:17:14;12.20;99.90
5172;DHT22;2605;49.770;9.868;2022-09-27T14:19:41;12.50;99.90
5172;DHT22;2605;49.770;9.868;2022-09-27T14:22:17;12.60;99.90
5172;DHT22;2605;49.770;9.868;2022-09-27T14:24:48;12.70;99.90
5172;DHT22;2605;49.770;9.868;2022-09-27T14:27:25;12.70;99.90
5172;DHT22;2605;49.770;9.868;2022-09-27T14:29:59;12.50;99.90
5172;DHT22;2605;49.770;9.868;2022-09-27T14:32:32;12.40;99.90
5172;DHT22;2605;49.770;9.868;2022-09-27T14:35:22;12.60;99.90
5172;DHT22;2605;49.770;9.868;2022-09-27T14:38:15;12.70;99.90
5172;DHT22;2605;49.770;9.868;2022-09-27T14:41:03;12.90;99.90
5172;DHT22;2605;49.770;9.868;2022-09-27T14:43:29;13.00;99.90
5172;DHT22;2605;49.770;9.868;2022-09-27T14:46:06;12.70;99.90
5172;DHT22;2605;49.770;9.868;2022-09-27T14:48:37;12.80;99.90
5172;DHT22;2605;49.770;9.868;2022-09-27T14:53:43;12.70;99.90
5172;DHT22;2605;49.770;9.868;2022-09-27T14:56:17;12.50;99.90
5172;DHT22;2605;49.770;9.868;2022-09-27T14:58:44;12.00;99.90
5172;DHT22;2605;49.770;9.868;2022-09-27T15:01:18;11.90;99.90
5172;DHT22;2605;49.770;9.868;2022-09-27T15:03:46;11.90;99.90
5172;DHT22;2605;49.770;9.868;2022-09-27T15:06:16;11.70;99.90
5172;DHT22;2605;49.770;9.868;2022-09-27T15:08:42;11.50;99.90
5172;DHT22;2605;49.770;9.868;2022-09-27T15:11:11;11.50;99.90
5172;DHT22;2605;49.770;9.868;2022-09-27T15:13:39;11.50;99.90
5172;DHT22;2605;49.770;9.868;2022-09-27T15:16:15;11.30;99.90
5172;DHT22;2605;49.770;9.868;2022-09-27T15:18:57;11.20;99.90
5172;DHT22;2605;49.770;9.868;2022-09-27T15:21:35;11.30;99.90
5172;DHT22;2605;49.770;9.868;2022-09-27T15:24:02;11.30;99.90
5172;DHT22;2605;49.770;9.868;2022-09-27T15:26:40;11.40;99.90
5172;DHT22;2605;49.770;9.868;2022-09-27T15:29:18;11.30;99.90
5172;DHT22;2605;49.770;9.868;2022-09-27T15:31:44;11.20;99.90
5172;DHT22;2605;49.770;9.868;2022-09-27T15:34:16;11.30;99.90
5172;DHT22;2605;49.770;9.868;2022-09-27T15:36:51;11.30;99.90
5172;DHT22;2605;49.770;9.868;2022-09-27T15:39:25;11.30;99.90
5172;DHT22;2605;49.770;9.868;2022-09-27T15:42:10;11.10;99.90
5172;DHT22;2605;49.770;9.868;2022-09-27T15:52:41;11.00;99.90
5172;DHT22;2605;49.770;9.868;2022-09-27T15:55:15;11.00;99.90
5172;DHT22;2605;49.770;9.868;2022-09-27T15:57:43;11.10;99.90
5172;DHT22;2605;49.770;9.868;2022-09-27T16:00:13;11.10;99.90
5172;DHT22;2605;49.770;9.868;2022-09-27T16:02:39;11.30;99.90
5172;DHT22;2605;49.770;9.868;2022-09-27T16:05:05;11.20;99.90
5172;DHT22;2605;49.770;9.868;2022-09-27T16:07:30;11.30;99.90
5172;DHT22;2605;49.770;9.868;2022-09-27T16:09:56;11.30;99.90
5172;DHT22;2605;49.770;9.868;2022-09-27T16:12:21;11.70;99.90
5172;DHT22;2605;49.770;9.868;2022-09-27T16:14:47;12.60;99.90
5172;DHT22;2605;49.770;9.868;2022-09-27T16:17:13;13.10;99.90
5172;DHT22;2605;49.770;9.868;2022-09-27T16:19:39;13.20;99.90
5172;DHT22;2605;49.770;9.868;2022-09-27T16:22:04;12.60;99.90
5172;DHT22;2605;49.770;9.868;2022-09-27T16:24:30;11.90;99.90
5172;DHT22;2605;49.770;9.868;2022-09-27T16:26:57;11.60;99.90
5172;DHT22;2605;49.770;9.868;2022-09-27T16:29:22;11.10;99.90
5172;DHT22;2605;49.770;9.868;2022-09-27T16:31:48;10.90;99.90
5172;DHT22;2605;49.770;9.868;2022-09-27T16:34:14;10.80;99.90
5172;DHT22;2605;49.770;9.868;2022-09-27T16:36:42;10.60;99.90
5172;DHT22;2605;49.770;9.868;2022-09-27T16:39:12;10.30;99.90
5172;DHT22;2605;49.770;9.868;2022-09-27T16:41:38;10.10;99.90
5172;DHT22;2605;49.770;9.868;2022-09-27T16:44:06;10.00;99.90
5172;DHT22;2605;49.770;9.868;2022-09-27T16:46:32;10.00;99.90
5172;DHT22;2605;49.770;9.868;2022-09-27T16:48:59;9.80;99.90
5172;DHT22;2605;49.770;9.868;2022-09-27T16:51:25;9.70;99.90
5172;DHT22;2605;49.770;9.868;2022-09-27T16:54:09;9.60;99.90
5172;DHT22;2605;49.770;9.868;2022-09-27T16:56:35;9.40;99.90
5172;DHT22;2605;49.770;9.868;2022-09-27T16:59:02;9.30;99.90
5172;DHT22;2605;49.770;9.868;2022-09-27T17:01:30;9.20;99.90
5172;DHT22;2605;49.770;9.868;2022-09-27T17:03:55;9.10;99.90
5172;DHT22;2605;49.770;9.868;2022-09-27T17:06:22;9.00;99.90
5172;DHT22;2605;49.770;9.868;2022-09-27T17:08:48;8.90;99.90
5172;DHT22;2605;49.770;9.868;2022-09-27T17:11:17;8.80;99.90
5172;DHT22;2605;49.770;9.868;2022-09-27T17:13:44;8.80;99.90
5172;DHT22;2605;49.770;9.868;2022-09-27T17:16:11;8.70;99.90
5172;DHT22;2605;49.770;9.868;2022-09-27T17:18:38;8.70;99.90
5172;DHT22;2605;49.770;9.868;2022-09-27T17:21:05;8.70;99.90
5172;DHT22;2605;49.770;9.868;2022-09-27T17:23:31;8.60;99.90
5172;DHT22;2605;49.770;9.868;2022-09-27T17:26:21;8.60;99.90
5172;DHT22;2605;49.770;9.868;2022-09-27T17:28:47;8.60;99.90
5172;DHT22;2605;49.770;9.868;2022-09-27T17:31:15;8.70;99.90
5172;DHT22;2605;49.770;9.868;2022-09-27T17:33:44;8.50;99.90
5172;DHT22;2605;49.770;9.868;2022-09-27T17:36:15;8.50;99.90
5172;DHT22;2605;49.770;9.868;2022-09-27T17:38:42;8.50;99.90
5172;DHT22;2605;49.770;9.868;2022-09-27T17:41:11;8.50;99.90
5172;DHT22;2605;49.770;9.868;2022-09-27T17:43:38;8.50;99.90
5172;DHT22;2605;49.770;9.868;2022-09-27T17:46:09;8.50;99.90
5172;DHT22;2605;49.770;9.868;2022-09-27T17:48:35;8.50;99.90
5172;DHT22;2605;49.770;9.868;2022-09-27T17:51:20;8.50;99.90
5172;DHT22;2605;49.770;9.868;2022-09-27T17:53:46;8.30;99.90
5172;DHT22;2605;49.770;9.868;2022-09-27T17:56:12;8.30;99.90
5172;DHT22;2605;49.770;9.868;2022-09-27T17:58:43;8.20;99.90
5172;DHT22;2605;49.770;9.868;2022-09-27T18:01:09;8.30;99.90
5172;DHT22;2605;49.770;9.868;2022-09-27T18:03:35;8.20;99.90
5172;DHT22;2605;49.770;9.868;2022-09-27T18:06:08;8.20;99.90
5172;DHT22;2605;49.770;9.868;2022-09-27T18:08:34;8.10;99.90
5172;DHT22;2605;49.770;9.868;2022-09-27T18:11:09;8.10;99.90
5172;DHT22;2605;49.770;9.868;2022-09-27T18:13:34;8.00;99.90
5172;DHT22;2605;49.770;9.868;2022-09-27T18:16:16;8.00;99.90
5172;DHT22;2605;49.770;9.868;2022-09-27T18:18:43;7.90;99.90
5172;DHT22;2605;49.770;9.868;2022-09-27T18:21:12;7.90;99.90
5172;DHT22;2605;49.770;9.868;2022-09-27T18:23:40;7.90;99.90
5172;DHT22;2605;49.770;9.868;2022-09-27T18:26:06;7.80;99.90
5172;DHT22;2605;49.770;9.868;2022-09-27T18:28:37;7.70;99.90
5172;DHT22;2605;49.770;9.868;2022-09-27T18:31:14;7.80;99.90
5172;DHT22;2605;49.770;9.868;2022-09-27T18:33:40;7.70;99.90
5172;DHT22;2605;49.770;9.868;2022-09-27T18:36:09;7.70;99.90
5172;DHT22;2605;49.770;9.868;2022-09-27T18:38:35;7.60;99.90
5172;DHT22;2605;49.770;9.868;2022-09-27T18:41:08;7.80;99.90
5172;DHT22;2605;49.770;9.868;2022-09-27T18:43:34;7.60;99.90
5172;DHT22;2605;49.770;9.868;2022-09-27T18:46:05;7.60;99.90
5172;DHT22;2605;49.770;9.868;2022-09-27T18:48:31;7.50;99.90
5172;DHT22;2605;49.770;9.868;2022-09-27T18:51:18;7.50;99.90
5172;DHT22;2605;49.770;9.868;2022-09-27T18:53:44;7.50;99.90
5172;DHT22;2605;49.770;9.868;2022-09-27T18:56:12;7.50;99.90
5172;DHT22;2605;49.770;9.868;2022-09-27T18:58:38;7.50;99.90